Time;durP1;ratioP1;P1;durP2;ratioP2;P2;SDS_P1;SDS_P2;PMS_P1;PMS_P2;Temp;Humidity;BMP_temperature;BMP_pressure;BME280_temperature;BME280_humidity;BME280_pressure;Samples;Min_cycle;Max_cycle;Signal;HPM_P1;HPM_P2
2022/06/19 00:01:50;;;;;;;3.00;1.00;;;25.10;1.00;;;;;;5095433;28;20465;-73
2022/06/19 00:04:20;;;;;;;3.70;1.00;;;25.10;1.00;;;;;;5096067;28;20446;-74
2022/06/19 00:06:47;;;;;;;5.80;1.30;;;25.00;1.00;;;;;;5095771;28;20449;-74
2022/06/19 00:09:14;;;;;;;2.60;1.17;;;24.80;1.00;;;;;;5094768;28;20532;-74
2022/06/19 00:11:41;;;;;;;3.73;1.03;;;24.80;1.00;;;;;;5095720;28;20477;-74
2022/06/19 00:14:09;;;;;;;2.23;1.20;;;24.70;1.00;;;;;;5096090;28;20561;-74
2022/06/19 00:16:37;;;;;;;2.40;0.90;;;24.60;1.00;;;;;;5095808;28;20507;-74
2022/06/19 00:19:05;;;;;;;5.90;1.30;;;24.60;1.00;;;;;;5095719;28;20704;-73
2022/06/19 00:21:33;;;;;;;2.53;1.10;;;24.50;1.00;;;;;;5094039;28;20506;-75
2022/06/19 00:24:00;;;;;;;2.63;1.00;;;24.50;1.00;;;;;;5095834;28;20806;-74
2022/06/19 00:26:27;;;;;;;3.20;1.10;;;24.40;1.00;;;;;;5096373;28;20978;-75
2022/06/19 00:28:54;;;;;;;4.57;1.00;;;24.40;1.00;;;;;;5096293;28;20941;-74
2022/06/19 00:31:21;;;;;;;2.77;1.00;;;24.40;1.00;;;;;;5096883;28;20544;-74
2022/06/19 00:33:48;;;;;;;2.30;0.93;;;24.40;1.00;;;;;;5095982;28;20506;-74
2022/06/19 00:36:15;;;;;;;2.00;0.90;;;24.40;1.00;;;;;;5096639;28;20553;-74
2022/06/19 00:38:43;;;;;;;7.20;1.20;;;24.30;1.00;;;;;;5095535;28;20576;-74
2022/06/19 00:41:10;;;;;;;2.63;1.07;;;24.20;1.00;;;;;;5095108;28;20765;-74
2022/06/19 00:43:59;;;;;;;3.83;1.00;;;24.20;1.00;;;;;;5095848;28;20481;-74
2022/06/19 00:46:48;;;;;;;2.50;1.00;;;24.10;1.00;;;;;;5095536;28;20524;-75
2022/06/19 00:49:17;;;;;;;2.93;1.60;;;24.00;1.00;;;;;;5095683;28;20448;-77
2022/06/19 00:51:44;;;;;;;2.33;1.10;;;24.00;1.00;;;;;;5095454;28;20545;-74
2022/06/19 00:54:16;;;;;;;3.37;1.10;;;24.00;1.00;;;;;;5095799;28;20540;-74
2022/06/19 00:56:43;;;;;;;3.93;1.67;;;23.90;1.00;;;;;;5096398;28;20936;-75
2022/06/19 00:59:12;;;;;;;1.23;0.90;;;23.80;1.00;;;;;;5095811;28;20517;-74
2022/06/19 01:01:40;;;;;;;4.70;1.10;;;23.80;1.00;;;;;;5095379;28;20453;-75
2022/06/19 01:04:13;;;;;;;1.50;0.77;;;23.80;1.00;;;;;;5094472;28;20964;-75
2022/06/19 01:06:40;;;;;;;1.70;0.70;;;23.80;1.00;;;;;;5093469;28;20564;-75
2022/06/19 01:09:06;;;;;;;4.93;1.00;;;23.90;1.00;;;;;;5094855;28;20533;-73
2022/06/19 01:11:37;;;;;;;1.33;0.80;;;23.90;1.00;;;;;;5094183;28;20551;-73
2022/06/19 01:14:07;;;;;;;4.03;1.20;;;23.90;1.00;;;;;;5094978;28;20481;-73
2022/06/19 01:16:35;;;;;;;2.53;0.97;;;24.00;1.00;;;;;;5095878;28;20812;-72
2022/06/19 01:19:02;;;;;;;4.60;1.00;;;24.00;1.00;;;;;;5095030;28;20492;-75
2022/06/19 01:21:35;;;;;;;2.10;0.90;;;24.00;1.00;;;;;;5095704;28;20500;-73
2022/06/19 01:24:12;;;;;;;3.10;1.00;;;24.00;1.00;;;;;;5095954;28;20524;-73
2022/06/19 01:26:44;;;;;;;3.50;0.83;;;24.00;1.00;;;;;;5096200;28;20488;-73
2022/06/19 01:29:11;;;;;;;1.70;0.83;;;23.90;1.00;;;;;;5094749;28;20797;-75
2022/06/19 01:31:42;;;;;;;3.10;0.80;;;23.90;1.00;;;;;;5095434;28;20517;-73
2022/06/19 01:34:27;;;;;;;4.13;0.73;;;23.80;1.00;;;;;;5095428;28;20478;-73
2022/06/19 01:36:58;;;;;;;2.00;0.80;;;23.80;1.00;;;;;;5094487;28;20453;-75
2022/06/19 01:39:27;;;;;;;3.10;0.90;;;23.80;1.00;;;;;;5093170;28;20580;-74
2022/06/19 01:41:56;;;;;;;2.60;1.03;;;23.80;1.00;;;;;;5093682;28;20553;-74
2022/06/19 01:44:23;;;;;;;1.93;0.80;;;23.80;1.00;;;;;;5093997;28;20456;-74
2022/06/19 01:46:53;;;;;;;4.53;0.80;;;23.80;1.00;;;;;;5092887;28;20518;-74
2022/06/19 01:49:20;;;;;;;2.97;0.80;;;23.80;1.00;;;;;;5094625;28;20545;-73
2022/06/19 01:51:48;;;;;;;2.60;0.93;;;23.80;1.00;;;;;;5095307;28;20548;-74
2022/06/19 01:54:21;;;;;;;1.20;0.80;;;23.70;1.00;;;;;;5094881;28;20453;-74
2022/06/19 01:56:49;;;;;;;2.00;0.90;;;23.70;1.00;;;;;;5095544;28;20552;-74
2022/06/19 01:59:28;;;;;;;3.63;1.20;;;23.70;1.00;;;;;;5095590;28;20475;-73
2022/06/19 02:01:55;;;;;;;4.83;0.60;;;23.70;1.00;;;;;;5095516;28;20461;-74
2022/06/19 02:04:24;;;;;;;2.67;0.70;;;23.70;1.00;;;;;;5094822;28;20916;-74
2022/06/19 02:06:54;;;;;;;2.40;0.80;;;23.80;1.00;;;;;;5096235;28;20460;-75
2022/06/19 02:09:23;;;;;;;1.70;0.67;;;23.80;1.00;;;;;;5096813;28;20449;-74
2022/06/19 02:11:50;;;;;;;2.80;0.90;;;23.80;1.00;;;;;;5096693;28;20560;-74
2022/06/19 02:14:20;;;;;;;2.13;1.57;;;23.80;1.00;;;;;;5097242;28;20922;-74
2022/06/19 02:16:49;;;;;;;3.57;0.80;;;23.80;1.00;;;;;;5097827;28;20548;-74
2022/06/19 02:19:17;;;;;;;3.00;0.70;;;23.90;1.00;;;;;;5097453;28;20562;-74
2022/06/19 02:21:46;;;;;;;6.33;0.80;;;23.90;1.00;;;;;;5097736;28;20453;-75
2022/06/19 02:24:17;;;;;;;1.10;0.70;;;24.00;1.00;;;;;;5098387;28;20950;-74
2022/06/19 02:26:45;;;;;;;2.63;0.80;;;24.00;1.00;;;;;;5099568;28;20552;-74
2022/06/19 02:29:16;;;;;;;2.70;2.50;;;24.00;1.00;;;;;;5099950;28;20492;-74
2022/06/19 02:31:48;;;;;;;3.17;0.80;;;24.00;1.00;;;;;;5098851;28;20540;-74
2022/06/19 02:34:20;;;;;;;2.27;0.70;;;24.00;1.00;;;;;;5098603;28;20513;-73
2022/06/19 02:36:50;;;;;;;1.90;0.70;;;24.00;1.00;;;;;;5099240;28;20940;-75
2022/06/19 02:39:40;;;;;;;2.10;0.80;;;24.00;1.00;;;;;;5098853;28;20584;-74
2022/06/19 02:42:29;;;;;;;2.60;0.80;;;24.00;1.00;;;;;;5099196;28;20544;-74
2022/06/19 02:45:05;;;;;;;3.77;0.70;;;24.10;1.00;;;;;;5099196;28;20473;-74
2022/06/19 02:47:36;;;;;;;3.47;0.80;;;24.10;1.00;;;;;;5099268;28;20587;-74
2022/06/19 02:50:05;;;;;;;2.67;0.80;;;24.10;1.00;;;;;;5099232;28;20508;-74
2022/06/19 02:52:32;;;;;;;2.90;0.80;;;24.10;1.00;;;;;;5098552;28;20465;-74
2022/06/19 02:54:59;;;;;;;2.00;0.70;;;24.10;1.00;;;;;;5098680;28;20489;-74
2022/06/19 02:57:27;;;;;;;2.93;0.63;;;24.10;1.00;;;;;;5098676;28;20461;-74
2022/06/19 02:59:54;;;;;;;3.90;0.70;;;24.00;1.00;;;;;;5098786;28;20480;-74
2022/06/19 03:02:21;;;;;;;0.90;0.70;;;24.00;1.00;;;;;;5098120;28;20835;-75
2022/06/19 03:04:53;;;;;;;2.90;0.90;;;24.00;1.00;;;;;;5098362;28;20981;-74
2022/06/19 03:07:19;;;;;;;4.67;1.00;;;24.00;1.00;;;;;;5098015;28;20969;-74
2022/06/19 03:09:46;;;;;;;1.93;0.90;;;23.90;1.00;;;;;;5098442;28;20479;-74
2022/06/19 03:12:13;;;;;;;4.30;0.90;;;23.90;1.00;;;;;;5098661;28;20528;-74
2022/06/19 03:14:40;;;;;;;2.83;0.70;;;23.90;1.00;;;;;;5097895;28;20872;-74
2022/06/19 03:17:07;;;;;;;3.27;0.70;;;23.70;1.00;;;;;;5097407;28;20929;-73
2022/06/19 03:19:35;;;;;;;2.43;0.80;;;23.60;1.00;;;;;;5097016;28;20504;-74
2022/06/19 03:22:03;;;;;;;1.10;0.77;;;23.60;1.00;;;;;;5097170;28;20690;-74
2022/06/19 03:24:30;;;;;;;5.67;0.90;;;23.50;1.00;;;;;;5096859;28;20481;-74
2022/06/19 03:26:57;;;;;;;1.43;0.80;;;23.50;1.00;;;;;;5096296;28;20450;-74
2022/06/19 03:29:24;;;;;;;2.57;0.77;;;23.50;1.00;;;;;;5095961;28;20967;-74
2022/06/19 03:31:51;;;;;;;2.40;0.90;;;23.50;1.00;;;;;;5097241;28;20449;-74
2022/06/19 03:34:18;;;;;;;2.70;0.70;;;23.50;1.00;;;;;;5098018;28;20532;-74
2022/06/19 03:36:45;;;;;;;1.17;0.80;;;23.40;1.00;;;;;;5098129;28;20936;-74
2022/06/19 03:39:13;;;;;;;1.10;0.70;;;23.40;1.00;;;;;;5097982;28;20548;-74
2022/06/19 03:41:40;;;;;;;4.00;0.80;;;23.40;1.00;;;;;;5097995;28;20510;-74
2022/06/19 03:44:07;;;;;;;1.60;0.93;;;23.40;1.00;;;;;;5098123;28;20540;-75
2022/06/19 03:46:35;;;;;;;6.80;0.90;;;23.40;1.00;;;;;;5097930;28;20947;-74
2022/06/19 03:49:03;;;;;;;1.40;0.90;;;23.40;1.00;;;;;;5097705;28;20529;-74
2022/06/19 03:51:30;;;;;;;3.10;0.90;;;23.30;1.00;;;;;;5097425;28;20445;-74
2022/06/19 03:53:58;;;;;;;6.80;1.00;;;23.40;1.00;;;;;;5097572;28;21037;-75
2022/06/19 03:56:30;;;;;;;1.70;0.80;;;23.40;1.00;;;;;;5097601;28;20547;-75
2022/06/19 03:58:57;;;;;;;3.23;1.00;;;23.40;1.00;;;;;;5097402;28;20893;-74
2022/06/19 04:01:27;;;;;;;3.97;0.90;;;23.40;1.00;;;;;;5097486;28;20500;-74
2022/06/19 04:03:56;;;;;;;4.87;0.90;;;23.40;1.00;;;;;;5097877;28;20553;-74
2022/06/19 04:06:27;;;;;;;2.33;0.80;;;23.40;1.00;;;;;;5097236;28;20544;-75
2022/06/19 04:08:55;;;;;;;1.90;0.90;;;23.40;1.00;;;;;;5097069;28;20540;-73
2022/06/19 04:11:24;;;;;;;2.60;0.83;;;23.40;1.00;;;;;;5097112;28;20806;-74
2022/06/19 04:13:53;;;;;;;3.63;1.23;;;23.40;1.00;;;;;;5097697;28;20552;-74
2022/06/19 04:16:22;;;;;;;2.30;0.80;;;23.40;1.00;;;;;;5097207;28;20457;-73
2022/06/19 04:18:50;;;;;;;1.70;0.90;;;23.40;1.00;;;;;;5096988;28;20543;-74
2022/06/19 04:21:19;;;;;;;2.20;1.00;;;23.50;1.00;;;;;;5096371;28;20486;-73
2022/06/19 04:23:47;;;;;;;2.10;0.70;;;23.50;1.00;;;;;;5096593;28;20532;-74
2022/06/19 04:26:16;;;;;;;1.37;0.70;;;23.50;1.00;;;;;;5096678;28;20489;-74
2022/06/19 04:28:43;;;;;;;3.30;0.90;;;23.50;1.00;;;;;;5095697;28;20818;-73
2022/06/19 04:31:12;;;;;;;5.90;0.90;;;23.60;1.00;;;;;;5095953;28;20908;-74
2022/06/19 04:33:39;;;;;;;1.23;0.80;;;23.70;1.00;;;;;;5096921;28;20824;-75
2022/06/19 04:36:06;;;;;;;5.30;1.00;;;23.70;1.00;;;;;;5096382;28;20747;-74
2022/06/19 04:38:34;;;;;;;1.33;0.80;;;23.70;1.00;;;;;;5096065;28;20485;-74
2022/06/19 04:41:01;;;;;;;4.20;0.90;;;23.70;1.00;;;;;;5095229;28;21031;-73
2022/06/19 04:43:27;;;;;;;2.40;0.90;;;23.80;1.00;;;;;;5095250;28;20446;-74
2022/06/19 04:46:02;;;;;;;2.03;0.73;;;23.80;1.00;;;;;;5094553;28;20531;-74
2022/06/19 04:48:31;;;;;;;5.67;0.83;;;23.80;1.00;;;;;;5095417;28;20452;-74
2022/06/19 04:50:58;;;;;;;2.50;0.80;;;23.80;1.00;;;;;;5096527;28;20441;-74
2022/06/19 04:53:25;;;;;;;2.77;0.80;;;23.90;1.00;;;;;;5095922;28;20487;-73
2022/06/19 04:55:52;;;;;;;5.23;1.03;;;23.90;1.00;;;;;;5095439;28;21068;-74
2022/06/19 04:58:22;;;;;;;3.40;0.80;;;23.90;1.00;;;;;;5096186;28;20477;-73
2022/06/19 05:00:49;;;;;;;2.70;0.70;;;24.00;1.00;;;;;;5097333;28;20485;-74
2022/06/19 05:03:16;;;;;;;5.07;0.80;;;24.10;1.00;;;;;;5097025;28;20445;-74
2022/06/19 05:05:45;;;;;;;1.17;0.70;;;24.10;1.00;;;;;;5097201;28;20540;-74
2022/06/19 05:08:12;;;;;;;1.67;0.90;;;24.00;1.00;;;;;;5097358;28;20481;-75
2022/06/19 05:10:39;;;;;;;4.17;0.97;;;24.10;1.00;;;;;;5096918;28;20482;-74
2022/06/19 05:13:07;;;;;;;2.13;0.80;;;24.10;1.00;;;;;;5095747;28;20478;-74
2022/06/19 05:15:34;;;;;;;2.53;0.80;;;24.10;1.00;;;;;;5095694;28;20801;-75
2022/06/19 05:18:01;;;;;;;6.60;1.67;;;24.10;1.00;;;;;;5095822;28;20884;-76
2022/06/19 05:20:29;;;;;;;2.37;0.80;;;24.10;1.00;;;;;;5095516;28;20481;-74
2022/06/19 05:22:57;;;;;;;2.23;0.70;;;24.10;1.00;;;;;;5094576;28;20548;-73
2022/06/19 05:25:24;;;;;;;4.40;0.83;;;24.20;1.00;;;;;;5094390;28;20549;-73
2022/06/19 05:27:51;;;;;;;2.30;0.80;;;24.20;1.00;;;;;;5094652;28;20889;-74
2022/06/19 05:30:18;;;;;;;1.93;0.80;;;24.30;1.00;;;;;;5094923;28;20537;-73
2022/06/19 05:32:45;;;;;;;1.60;0.70;;;24.30;1.00;;;;;;5095289;28;20548;-73
2022/06/19 05:35:11;;;;;;;4.47;0.90;;;24.30;1.00;;;;;;5095967;28;20507;-73
2022/06/19 05:37:38;;;;;;;1.63;0.73;;;24.40;1.00;;;;;;5095595;28;20449;-73
2022/06/19 05:40:09;;;;;;;3.80;1.30;;;24.50;1.00;;;;;;5095947;28;20820;-72
2022/06/19 05:42:36;;;;;;;2.93;0.70;;;24.50;1.00;;;;;;5099191;28;20461;-73
2022/06/19 05:45:03;;;;;;;2.83;0.90;;;24.60;1.00;;;;;;5099819;28;20503;-73
2022/06/19 05:47:30;;;;;;;1.17;0.70;;;24.60;1.00;;;;;;5099812;28;20756;-74
2022/06/19 05:50:06;;;;;;;6.83;0.90;;;24.70;1.00;;;;;;5100673;28;20485;-74
2022/06/19 05:52:34;;;;;;;3.53;0.80;;;24.70;1.00;;;;;;5100349;28;20905;-71
2022/06/19 05:55:06;;;;;;;1.70;0.90;;;24.80;1.00;;;;;;5101168;28;20449;-72
2022/06/19 05:57:34;;;;;;;1.40;0.80;;;24.80;1.00;;;;;;5100282;28;20453;-72
2022/06/19 06:00:02;;;;;;;5.23;0.80;;;24.90;1.00;;;;;;5101521;28;20449;-71
2022/06/19 06:02:29;;;;;;;2.93;0.80;;;25.00;1.00;;;;;;5101223;28;20514;-72
2022/06/19 06:04:56;;;;;;;2.60;0.80;;;25.10;1.00;;;;;;5101331;28;20450;-71
2022/06/19 06:07:26;;;;;;;5.33;1.10;;;25.10;1.00;;;;;;5101259;28;20915;-72
2022/06/19 06:09:53;;;;;;;3.63;0.90;;;25.20;1.00;;;;;;5100614;28;20429;-71
2022/06/19 06:12:22;;;;;;;3.00;0.80;;;25.30;1.00;;;;;;5101109;28;20488;-71
2022/06/19 06:14:54;;;;;;;3.90;0.80;;;25.30;1.00;;;;;;5101099;28;20575;-70
2022/06/19 06:17:23;;;;;;;2.60;0.90;;;25.40;1.00;;;;;;5101652;28;20489;-72
2022/06/19 06:19:50;;;;;;;1.60;0.90;;;25.50;1.00;;;;;;5100809;28;20450;-72
2022/06/19 06:22:18;;;;;;;1.67;0.67;;;25.60;1.00;;;;;;5101266;28;20580;-71
2022/06/19 06:24:45;;;;;;;4.00;0.93;;;25.70;1.00;;;;;;5101034;28;20799;-71
2022/06/19 06:27:17;;;;;;;2.93;0.93;;;25.80;1.00;;;;;;5101229;28;20488;-72
2022/06/19 06:29:44;;;;;;;3.90;0.80;;;25.90;1.00;;;;;;5100915;28;21400;-71
2022/06/19 06:32:14;;;;;;;6.40;1.00;;;26.00;1.00;;;;;;5101104;28;20480;-72
2022/06/19 06:34:41;;;;;;;3.70;1.40;;;26.10;1.00;;;;;;5099430;28;20874;-70
2022/06/19 06:37:09;;;;;;;2.07;0.90;;;26.20;1.00;;;;;;5099488;28;20481;-71
2022/06/19 06:39:36;;;;;;;2.37;0.80;;;26.30;1.00;;;;;;5098234;28;20504;-72
2022/06/19 06:42:04;;;;;;;3.73;0.80;;;26.40;1.00;;;;;;5098453;28;20485;-71
2022/06/19 06:44:31;;;;;;;2.90;0.90;;;26.50;1.00;;;;;;5098196;28;20473;-71
2022/06/19 06:46:57;;;;;;;2.07;0.80;;;26.60;1.00;;;;;;5097708;28;20548;-72
2022/06/19 06:49:26;;;;;;;2.30;1.00;;;26.70;1.00;;;;;;5098567;28;20526;-72
2022/06/19 06:51:53;;;;;;;2.23;0.80;;;26.90;1.00;;;;;;5098062;28;20450;-71
2022/06/19 06:54:20;;;;;;;2.87;0.90;;;27.10;1.00;;;;;;5098358;28;20524;-71
2022/06/19 06:56:47;;;;;;;9.57;1.30;;;27.20;1.00;;;;;;5097791;28;20453;-71
2022/06/19 06:59:14;;;;;;;3.23;0.90;;;27.30;1.00;;;;;;5098145;28;20477;-71
2022/06/19 07:01:42;;;;;;;5.20;1.20;;;27.50;1.00;;;;;;5098163;28;20485;-71
2022/06/19 07:04:10;;;;;;;1.30;1.00;;;27.60;1.00;;;;;;5097566;28;20453;-71
2022/06/19 07:06:38;;;;;;;3.33;0.90;;;27.70;1.00;;;;;;5098065;28;20536;-71
2022/06/19 07:09:07;;;;;;;3.70;0.93;;;27.80;1.00;;;;;;5098255;28;20958;-70
2022/06/19 07:11:37;;;;;;;1.93;0.93;;;27.80;1.00;;;;;;5098543;28;20449;-71
2022/06/19 07:14:04;;;;;;;8.10;1.13;;;27.70;1.00;;;;;;5097329;28;20984;-71
2022/06/19 07:16:31;;;;;;;4.33;0.90;;;27.70;1.00;;;;;;5098017;28;20568;-71
2022/06/19 07:18:57;;;;;;;1.83;0.80;;;27.80;1.00;;;;;;5095976;28;20536;-71
2022/06/19 07:21:24;;;;;;;4.47;0.90;;;27.90;1.00;;;;;;5097359;28;20499;-72
2022/06/19 07:23:53;;;;;;;3.07;0.90;;;28.00;1.00;;;;;;5097800;28;20536;-71
2022/06/19 07:26:22;;;;;;;3.67;0.90;;;28.00;1.00;;;;;;5097595;28;20453;-71
2022/06/19 07:28:49;;;;;;;3.13;0.80;;;28.10;1.00;;;;;;5096803;28;20541;-71
2022/06/19 07:31:15;;;;;;;2.80;1.00;;;28.20;1.00;;;;;;5096138;28;20544;-71
2022/06/19 07:33:42;;;;;;;2.80;1.00;;;28.30;1.00;;;;;;5097437;28;20536;-71
2022/06/19 07:36:14;;;;;;;3.20;1.00;;;28.30;1.00;;;;;;5097028;28;20465;-72
2022/06/19 07:38:41;;;;;;;2.73;1.00;;;28.30;1.00;;;;;;5097342;28;20453;-72
2022/06/19 07:41:10;;;;;;;2.40;1.10;;;28.30;1.00;;;;;;5096815;28;20867;-71
2022/06/19 07:43:37;;;;;;;2.13;0.93;;;28.30;1.00;;;;;;5096881;28;20804;-72
2022/06/19 07:46:06;;;;;;;2.73;1.07;;;28.40;1.00;;;;;;5096461;28;20500;-71
2022/06/19 07:51:17;;;;;;;2.03;1.00;;;28.50;1.00;;;;;;5096568;28;20772;-72
2022/06/19 07:53:44;;;;;;;5.80;1.00;;;28.60;1.00;;;;;;5097270;28;20510;-72
2022/06/19 07:56:13;;;;;;;2.73;0.90;;;28.80;1.00;;;;;;5097018;28;20460;-71
2022/06/19 07:58:43;;;;;;;4.00;1.27;;;28.90;1.00;;;;;;5097454;28;20477;-72
2022/06/19 08:01:10;;;;;;;3.90;1.00;;;29.10;1.00;;;;;;5096244;28;20486;-72
2022/06/19 08:03:39;;;;;;;4.23;1.17;;;29.30;1.00;;;;;;5094711;28;20481;-72
2022/06/19 08:06:06;;;;;;;4.20;1.40;;;29.40;1.00;;;;;;5096565;28;20461;-72
2022/06/19 08:08:34;;;;;;;5.30;1.20;;;29.60;1.00;;;;;;5096186;28;20537;-72
2022/06/19 08:11:02;;;;;;;7.10;1.20;;;29.70;1.00;;;;;;5096186;28;20532;-72
2022/06/19 08:13:32;;;;;;;2.77;1.20;;;29.80;1.00;;;;;;5096327;28;20920;-72
2022/06/19 08:16:02;;;;;;;3.90;1.40;;;30.00;1.00;;;;;;5096426;28;20449;-72
2022/06/19 08:18:30;;;;;;;8.17;1.50;;;30.10;1.00;;;;;;5096222;28;20460;-72
2022/06/19 08:20:57;;;;;;;3.17;2.67;;;30.20;1.00;;;;;;5096268;28;20476;-72
2022/06/19 08:23:24;;;;;;;2.37;2.17;;;30.40;1.00;;;;;;5096978;28;20499;-72
2022/06/19 08:25:51;;;;;;;3.93;2.53;;;30.60;1.00;;;;;;5095807;28;20539;-73
2022/06/19 08:28:20;;;;;;;4.53;2.53;;;30.80;1.00;;;;;;5096369;28;20536;-70
2022/06/19 08:30:48;;;;;;;2.83;2.57;;;30.90;1.00;;;;;;5095793;28;20452;-71
2022/06/19 08:33:15;;;;;;;6.70;2.53;;;31.00;1.00;;;;;;5095045;28;20477;-72
2022/06/19 08:35:45;;;;;;;6.70;3.30;;;31.10;1.00;;;;;;5096222;28;20544;-71
2022/06/19 08:38:17;;;;;;;3.37;2.83;;;31.20;1.00;;;;;;5095869;28;20822;-71
2022/06/19 08:41:11;;;;;;;2.93;2.73;;;31.30;1.00;;;;;;5094151;28;20456;-73
2022/06/19 08:44:07;;;;;;;5.07;3.07;;;31.30;1.00;;;;;;5096046;28;20465;-71
2022/06/19 08:46:47;;;;;;;5.90;2.60;;;31.50;1.00;;;;;;5095461;28;20943;-72
2022/06/19 08:49:35;;;;;;;7.10;2.73;;;31.50;1.00;;;;;;5095753;28;20762;-72
2022/06/19 08:52:13;;;;;;;4.23;3.77;;;31.50;1.00;;;;;;5095801;28;20476;-72
2022/06/19 08:54:53;;;;;;;3.73;2.37;;;31.70;1.00;;;;;;5096187;28;20449;-72
2022/06/19 08:57:28;;;;;;;2.83;2.53;;;31.80;1.00;;;;;;5096128;28;20536;-72
2022/06/19 09:00:05;;;;;;;4.40;1.60;;;31.90;1.00;;;;;;5095626;28;20429;-71
2022/06/19 09:02:54;;;;;;;2.43;1.90;;;32.10;1.00;;;;;;5095561;28;20569;-73
2022/06/19 09:05:38;;;;;;;4.40;2.17;;;32.20;1.00;;;;;;5094650;28;20532;-71
2022/06/19 09:08:28;;;;;;;6.33;3.17;;;32.30;1.00;;;;;;5095520;28;20461;-72
2022/06/19 09:11:06;;;;;;;4.07;2.30;;;32.40;1.00;;;;;;5095600;28;20924;-75
2022/06/19 09:13:48;;;;;;;3.50;2.40;;;32.50;1.00;;;;;;5095242;28;20508;-72
2022/06/19 09:16:28;;;;;;;3.53;3.13;;;32.60;1.00;;;;;;5096401;28;20540;-72
2022/06/19 09:19:02;;;;;;;1.57;1.47;;;32.60;1.00;;;;;;5098850;28;20823;-72
2022/06/19 09:21:35;;;;;;;2.67;2.27;;;32.70;1.00;;;;;;5097968;28;20484;-72
2022/06/19 09:24:24;;;;;;;3.97;2.17;;;32.70;1.00;;;;;;5098848;28;20454;-71
2022/06/19 09:26:55;;;;;;;3.10;1.70;;;32.80;1.00;;;;;;5098842;28;20552;-74
2022/06/19 09:29:32;;;;;;;1.90;1.70;;;32.80;1.00;;;;;;5099647;28;20484;-74
2022/06/19 09:32:04;;;;;;;5.23;1.40;;;32.90;1.00;;;;;;5098856;28;20535;-74
2022/06/19 09:34:38;;;;;;;3.23;1.90;;;33.10;1.00;;;;;;5101710;28;20539;-75
2022/06/19 09:37:15;;;;;;;7.60;1.50;;;33.10;1.00;;;;;;5101232;28;20506;-74
2022/06/19 09:39:48;;;;;;;3.40;1.80;;;33.30;1.00;;;;;;5102847;28;20779;-76
2022/06/19 09:42:21;;;;;;;2.70;1.50;;;33.40;1.00;;;;;;5110102;28;20821;-74
2022/06/19 09:44:55;;;;;;;3.20;1.30;;;33.30;1.00;;;;;;5104006;28;20924;-76
2022/06/19 09:47:29;;;;;;;2.07;1.70;;;33.30;1.00;;;;;;5101145;28;20556;-76
2022/06/19 09:50:03;;;;;;;2.63;1.70;;;33.30;1.00;;;;;;5098580;28;20482;-73
2022/06/19 09:52:38;;;;;;;2.97;1.30;;;33.40;1.00;;;;;;5099158;28;20457;-74
2022/06/19 09:55:17;;;;;;;3.33;1.30;;;33.50;1.00;;;;;;5097617;28;20488;-74
2022/06/19 09:57:48;;;;;;;4.53;1.37;;;33.50;1.00;;;;;;5097157;28;20832;-73
2022/06/19 10:00:21;;;;;;;3.70;1.90;;;33.60;1.00;;;;;;5097699;28;20481;-72
2022/06/19 10:02:52;;;;;;;3.00;1.83;;;33.60;1.00;;;;;;5096594;28;20479;-72
2022/06/19 10:05:32;;;;;;;9.50;1.50;;;33.60;1.00;;;;;;5097286;28;20532;-73
2022/06/19 10:08:07;;;;;;;5.43;1.23;;;33.70;1.00;;;;;;5097625;28;20457;-73
2022/06/19 10:10:43;;;;;;;3.13;1.20;;;33.60;1.00;;;;;;5098108;28;20510;-72
2022/06/19 10:13:17;;;;;;;4.57;1.30;;;33.90;1.00;;;;;;5098183;28;20568;-74
2022/06/19 10:15:45;;;;;;;2.17;1.50;;;33.90;1.00;;;;;;5097835;28;20865;-73
2022/06/19 10:18:17;;;;;;;2.80;1.70;;;34.30;1.00;;;;;;5076052;28;20461;-74
2022/06/19 10:20:54;;;;;;;5.77;1.70;;;34.50;1.00;;;;;;5077064;28;20742;-73
2022/06/19 10:23:30;;;;;;;2.87;2.57;;;34.60;1.00;;;;;;5081700;28;20579;-73
2022/06/19 10:26:13;;;;;;;2.63;2.30;;;34.70;1.00;;;;;;5096259;28;20452;-73
2022/06/19 10:29:00;;;;;;;1.97;1.40;;;34.90;1.00;;;;;;5097131;28;20481;-70
2022/06/19 10:31:40;;;;;;;7.27;1.60;;;35.10;1.00;;;;;;5097122;28;20543;-70
2022/06/19 10:34:16;;;;;;;3.17;1.43;;;34.90;1.00;;;;;;5098455;28;20485;-72
2022/06/19 10:36:54;;;;;;;5.37;1.40;;;35.00;1.00;;;;;;5097485;28;20489;-71
2022/06/19 10:39:34;;;;;;;6.37;1.50;;;35.10;99.90;;;;;;5096909;28;20450;-71
2022/06/19 10:42:07;;;;;;;2.03;1.30;;;35.50;99.90;;;;;;5096347;28;20489;-71
2022/06/19 10:45:05;;;;;;;5.30;2.63;;;35.60;99.90;;;;;;5096824;28;20445;-70
2022/06/19 10:47:46;;;;;;;2.47;1.67;;;35.90;99.90;;;;;;5078393;28;20552;-70
2022/06/19 10:50:23;;;;;;;3.43;2.40;;;35.90;99.90;;;;;;5097094;28;20455;-70
2022/06/19 10:52:58;;;;;;;3.30;1.77;;;36.10;99.90;;;;;;5096834;28;20464;-70
2022/06/19 10:55:33;;;;;;;3.27;1.80;;;36.50;99.90;;;;;;5096690;28;20445;-71
2022/06/19 10:58:14;;;;;;;3.73;1.60;;;36.70;99.90;;;;;;5095667;28;20551;-72
2022/06/19 11:00:41;;;;;;;3.30;1.27;;;36.50;99.90;;;;;;5097580;28;20824;-71
2022/06/19 11:06:07;;;;;;;4.80;2.00;;;36.70;99.90;;;;;;5097003;28;20437;-71
2022/06/19 11:08:36;;;;;;;2.30;1.30;;;36.90;99.90;;;;;;5097616;28;20897;-71
2022/06/19 11:11:04;;;;;;;2.50;1.80;;;36.80;1.00;;;;;;5097365;28;20446;-71
2022/06/19 11:13:57;;;;;;;2.60;1.50;;;36.50;99.90;;;;;;5096077;28;20995;-71
2022/06/19 11:16:26;;;;;;;4.00;2.97;;;36.50;99.90;;;;;;5096069;28;20489;-70
2022/06/19 11:18:57;;;;;;;2.43;1.60;;;36.70;99.90;;;;;;5095647;28;20450;-72
2022/06/19 11:21:27;;;;;;;3.17;1.43;;;37.00;99.90;;;;;;5096572;28;20453;-72
2022/06/19 11:23:58;;;;;;;1.53;1.30;;;37.40;99.90;;;;;;5096841;28;20571;-71
2022/06/19 11:26:28;;;;;;;12.67;1.97;;;37.40;99.90;;;;;;5096283;28;20544;-71
2022/06/19 11:29:00;;;;;;;3.53;1.40;;;37.60;99.90;;;;;;5095091;28;20635;-72
2022/06/19 11:31:30;;;;;;;2.40;1.20;;;37.60;99.90;;;;;;5093116;28;20548;-71
2022/06/19 11:34:00;;;;;;;2.97;1.30;;;37.60;99.90;;;;;;5094453;28;20445;-71
2022/06/19 11:36:31;;;;;;;2.93;1.30;;;37.90;99.90;;;;;;5093725;28;20475;-71
2022/06/19 11:39:02;;;;;;;3.50;1.13;;;38.00;99.90;;;;;;5093442;28;20532;-72
2022/06/19 11:41:32;;;;;;;2.87;1.40;;;38.10;99.90;;;;;;5081235;28;20489;-72
2022/06/19 11:44:15;;;;;;;3.13;1.23;;;37.60;99.90;;;;;;5091713;28;20478;-72
2022/06/19 11:46:48;;;;;;;3.00;1.40;;;37.90;99.90;;;;;;5080480;28;20458;-73
2022/06/19 11:49:25;;;;;;;6.73;1.53;;;37.90;99.90;;;;;;5079197;28;20478;-74
2022/06/19 11:51:54;;;;;;;2.00;1.20;;;37.90;99.90;;;;;;5096345;28;20457;-73
2022/06/19 11:54:27;;;;;;;2.50;1.30;;;37.60;99.90;;;;;;5096284;28;20552;-73
2022/06/19 11:56:55;;;;;;;1.97;1.20;;;37.80;99.90;;;;;;5097208;28;20454;-73
2022/06/19 11:59:31;;;;;;;2.30;1.20;;;37.90;99.90;;;;;;5096512;28;20445;-73
2022/06/19 12:01:58;;;;;;;2.07;1.50;;;38.20;99.90;;;;;;5091806;28;20547;-73
2022/06/19 12:04:31;;;;;;;2.27;1.30;;;38.50;99.90;;;;;;5092866;28;20979;-72
2022/06/19 12:07:01;;;;;;;3.00;1.57;;;38.50;99.90;;;;;;5092644;28;20475;-72
2022/06/19 12:09:43;;;;;;;2.50;1.10;;;38.40;99.90;;;;;;5092536;28;20534;-72
2022/06/19 12:12:19;;;;;;;4.13;1.20;;;38.10;99.90;;;;;;5086264;28;20489;-71
2022/06/19 12:15:22;;;;;;;3.00;1.30;;;38.00;99.90;;;;;;5090208;28;20999;-71
2022/06/19 12:17:58;;;;;;;2.67;1.27;;;38.00;99.90;;;;;;5078902;28;20508;-72
2022/06/19 12:20:29;;;;;;;2.27;1.10;;;38.10;99.90;;;;;;5094628;28;20499;-72
2022/06/19 12:23:03;;;;;;;2.67;1.30;;;38.30;99.90;;;;;;5091710;28;20967;-73
2022/06/19 12:25:44;;;;;;;4.00;1.63;;;38.50;99.90;;;;;;5091110;28;20767;-72
2022/06/19 12:28:18;;;;;;;2.33;1.70;;;38.40;99.90;;;;;;5087673;28;20556;-72
2022/06/19 12:30:49;;;;;;;2.97;1.37;;;38.10;99.90;;;;;;5093271;28;20812;-71
2022/06/19 12:33:24;;;;;;;1.80;1.20;;;38.00;99.90;;;;;;5081908;28;20446;-72
2022/06/19 12:35:51;;;;;;;1.80;1.10;;;38.20;99.90;;;;;;5071249;28;20533;-72
2022/06/19 12:38:20;;;;;;;3.17;1.23;;;38.60;99.90;;;;;;5073968;28;20785;-71
2022/06/19 12:41:06;;;;;;;2.30;1.50;;;38.80;99.90;;;;;;5074156;28;20474;-72
2022/06/19 12:43:49;;;;;;;2.43;1.60;;;38.90;99.90;;;;;;5074316;28;20489;-71
2022/06/19 12:46:27;;;;;;;1.40;1.00;;;38.90;99.90;;;;;;5077263;28;20478;-71
2022/06/19 12:49:05;;;;;;;1.97;1.50;;;39.30;99.90;;;;;;5090324;28;20793;-71
2022/06/19 12:51:40;;;;;;;1.90;1.40;;;38.90;99.90;;;;;;5075976;28;20458;-71
2022/06/19 12:54:32;;;;;;;3.00;1.73;;;38.90;99.90;;;;;;5080269;28;20498;-71
2022/06/19 12:57:15;;;;;;;3.73;1.40;;;38.40;99.90;;;;;;5085094;28;20543;-71
2022/06/19 13:00:01;;;;;;;2.03;1.30;;;38.40;99.90;;;;;;5089951;28;20541;-72
2022/06/19 13:02:53;;;;;;;2.27;1.33;;;38.80;99.90;;;;;;5092832;28;20510;-70
2022/06/19 13:05:44;;;;;;;1.57;1.40;;;39.30;99.90;;;;;;5092920;28;20488;-71
2022/06/19 13:08:29;;;;;;;2.87;1.20;;;39.60;99.90;;;;;;5094537;28;20560;-71
2022/06/19 13:11:07;;;;;;;2.70;1.40;;;39.70;99.90;;;;;;5095058;28;20532;-72
2022/06/19 13:13:59;;;;;;;4.40;1.40;;;39.40;99.90;;;;;;5095174;28;20508;-72
2022/06/19 13:16:35;;;;;;;3.83;1.47;;;38.90;99.90;;;;;;5094243;28;20481;-72
2022/06/19 13:19:09;;;;;;;5.80;1.77;;;38.70;99.90;;;;;;5094844;28;20874;-73
2022/06/19 13:21:43;;;;;;;3.67;1.10;;;39.10;99.90;;;;;;5094620;28;20722;-73
2022/06/19 13:24:25;;;;;;;4.10;1.10;;;39.20;99.90;;;;;;5076978;28;20969;-72